sensor_id;sensor_type;location;lat;lon;timestamp;temperature;humidity
23731;DHT22;12046;44.702;10.622;2023-04-21T00:00:57;13.80;99.90
23731;DHT22;12046;44.702;10.622;2023-04-21T00:03:24;13.80;99.90
23731;DHT22;12046;44.702;10.622;2023-04-21T00:05:54;13.80;99.90
23731;DHT22;12046;44.702;10.622;2023-04-21T00:08:20;13.80;99.90
23731;DHT22;12046;44.702;10.622;2023-04-21T00:10:46;13.80;99.90
23731;DHT22;12046;44.702;10.622;2023-04-21T00:13:12;13.80;99.90
23731;DHT22;12046;44.702;10.622;2023-04-21T00:15:38;13.80;99.90
23731;DHT22;12046;44.702;10.622;2023-04-21T00:18:04;13.70;99.90
23731;DHT22;12046;44.702;10.622;2023-04-21T00:20:31;13.70;99.90
23731;DHT22;12046;44.702;10.622;2023-04-21T00:22:57;13.70;99.90
23731;DHT22;12046;44.702;10.622;2023-04-21T00:25:24;13.70;99.90
23731;DHT22;12046;44.702;10.622;2023-04-21T00:27:50;13.70;99.90
23731;DHT22;12046;44.702;10.622;2023-04-21T00:30:18;13.60;99.90
23731;DHT22;12046;44.702;10.622;2023-04-21T00:32:43;13.60;99.90
23731;DHT22;12046;44.702;10.622;2023-04-21T00:35:09;13.60;99.90
23731;DHT22;12046;44.702;10.622;2023-04-21T00:37:35;13.60;99.90
23731;DHT22;12046;44.702;10.622;2023-04-21T00:40:01;13.60;99.90
23731;DHT22;12046;44.702;10.622;2023-04-21T00:42:29;13.60;99.90
23731;DHT22;12046;44.702;10.622;2023-04-21T00:44:55;13.60;99.90
23731;DHT22;12046;44.702;10.622;2023-04-21T00:47:20;13.60;99.90
23731;DHT22;12046;44.702;10.622;2023-04-21T00:49:46;13.50;99.90
23731;DHT22;12046;44.702;10.622;2023-04-21T00:52:15;13.50;99.90
23731;DHT22;12046;44.702;10.622;2023-04-21T00:54:42;13.60;99.90
23731;DHT22;12046;44.702;10.622;2023-04-21T00:57:09;13.60;99.90
23731;DHT22;12046;44.702;10.622;2023-04-21T00:59:35;13.60;99.90
23731;DHT22;12046;44.702;10.622;2023-04-21T01:02:01;13.60;99.90
23731;DHT22;12046;44.702;10.622;2023-04-21T01:04:27;13.60;99.90
23731;DHT22;12046;44.702;10.622;2023-04-21T01:06:53;13.60;99.90
23731;DHT22;12046;44.702;10.622;2023-04-21T01:09:20;13.60;99.90
23731;DHT22;12046;44.702;10.622;2023-04-21T01:14:31;13.60;99.90
23731;DHT22;12046;44.702;10.622;2023-04-21T01:16:56;13.70;99.90
23731;DHT22;12046;44.702;10.622;2023-04-21T01:19:23;13.60;99.90
23731;DHT22;12046;44.702;10.622;2023-04-21T01:21:50;13.70;99.90
23731;DHT22;12046;44.702;10.622;2023-04-21T01:24:22;13.70;99.90
23731;DHT22;12046;44.702;10.622;2023-04-21T01:26:49;13.70;99.90
23731;DHT22;12046;44.702;10.622;2023-04-21T01:29:16;13.70;99.90
23731;DHT22;12046;44.702;10.622;2023-04-21T01:31:42;13.70;99.90
23731;DHT22;12046;44.702;10.622;2023-04-21T01:34:09;13.70;99.90
23731;DHT22;12046;44.702;10.622;2023-04-21T01:36:35;13.70;99.90
23731;DHT22;12046;44.702;10.622;2023-04-21T01:39:02;13.70;99.90
23731;DHT22;12046;44.702;10.622;2023-04-21T01:41:28;13.60;99.90
23731;DHT22;12046;44.702;10.622;2023-04-21T01:43:54;13.70;99.90
23731;DHT22;12046;44.702;10.622;2023-04-21T01:46:20;13.60;99.90
23731;DHT22;12046;44.702;10.622;2023-04-21T01:48:46;13.70;99.90
23731;DHT22;12046;44.702;10.622;2023-04-21T01:51:11;13.70;99.90
23731;DHT22;12046;44.702;10.622;2023-04-21T01:53:37;13.70;99.90
23731;DHT22;12046;44.702;10.622;2023-04-21T01:56:03;13.60;99.90
23731;DHT22;12046;44.702;10.622;2023-04-21T01:58:29;13.70;99.90
23731;DHT22;12046;44.702;10.622;2023-04-21T02:00:54;13.70;99.90
23731;DHT22;12046;44.702;10.622;2023-04-21T02:03:20;13.60;99.90
23731;DHT22;12046;44.702;10.622;2023-04-21T02:05:46;13.60;99.90
23731;DHT22;12046;44.702;10.622;2023-04-21T02:08:11;13.60;99.90
23731;DHT22;12046;44.702;10.622;2023-04-21T02:10:37;13.60;99.90
23731;DHT22;12046;44.702;10.622;2023-04-21T02:13:03;13.60;99.90
23731;DHT22;12046;44.702;10.622;2023-04-21T02:15:29;13.60;99.90
23731;DHT22;12046;44.702;10.622;2023-04-21T02:17:54;13.50;99.90
23731;DHT22;12046;44.702;10.622;2023-04-21T02:20:20;13.50;99.90
23731;DHT22;12046;44.702;10.622;2023-04-21T02:22:46;13.50;99.90
23731;DHT22;12046;44.702;10.622;2023-04-21T02:25:12;13.50;99.90
23731;DHT22;12046;44.702;10.622;2023-04-21T02:27:37;13.50;99.90
23731;DHT22;12046;44.702;10.622;2023-04-21T02:30:03;13.50;99.90
23731;DHT22;12046;44.702;10.622;2023-04-21T02:32:29;13.50;99.90
23731;DHT22;12046;44.702;10.622;2023-04-21T02:34:56;13.50;99.90
23731;DHT22;12046;44.702;10.622;2023-04-21T02:37:21;13.50;99.90
23731;DHT22;12046;44.702;10.622;2023-04-21T02:39:47;13.40;99.90
23731;DHT22;12046;44.702;10.622;2023-04-21T02:42:13;13.50;99.90
23731;DHT22;12046;44.702;10.622;2023-04-21T02:44:39;13.50;99.90
23731;DHT22;12046;44.702;10.622;2023-04-21T02:47:05;13.40;99.90
23731;DHT22;12046;44.702;10.622;2023-04-21T02:49:30;13.40;99.90
23731;DHT22;12046;44.702;10.622;2023-04-21T02:51:57;13.40;99.90
23731;DHT22;12046;44.702;10.622;2023-04-21T02:54:23;13.40;99.90
23731;DHT22;12046;44.702;10.622;2023-04-21T02:56:48;13.40;99.90
23731;DHT22;12046;44.702;10.622;2023-04-21T02:59:14;13.40;99.90
23731;DHT22;12046;44.702;10.622;2023-04-21T03:01:41;13.40;99.90
23731;DHT22;12046;44.702;10.622;2023-04-21T03:04:07;13.40;99.90
23731;DHT22;12046;44.702;10.622;2023-04-21T03:06:33;13.30;99.90
23731;DHT22;12046;44.702;10.622;2023-04-21T03:08:58;13.30;99.90
23731;DHT22;12046;44.702;10.622;2023-04-21T03:11:24;13.30;99.90
23731;DHT22;12046;44.702;10.622;2023-04-21T03:13:50;13.30;99.90
23731;DHT22;12046;44.702;10.622;2023-04-21T03:16:15;13.30;99.90
23731;DHT22;12046;44.702;10.622;2023-04-21T03:18:41;13.30;99.90
23731;DHT22;12046;44.702;10.622;2023-04-21T03:21:07;13.30;99.90
23731;DHT22;12046;44.702;10.622;2023-04-21T03:23:32;13.30;99.90
23731;DHT22;12046;44.702;10.622;2023-04-21T03:31:09;13.40;99.90
23731;DHT22;12046;44.702;10.622;2023-04-21T03:33:35;13.30;99.90
23731;DHT22;12046;44.702;10.622;2023-04-21T03:36:01;13.30;99.90
23731;DHT22;12046;44.702;10.622;2023-04-21T03:38:30;13.30;99.90
23731;DHT22;12046;44.702;10.622;2023-04-21T03:40:56;13.30;99.90
23731;DHT22;12046;44.702;10.622;2023-04-21T03:43:21;13.30;99.90
23731;DHT22;12046;44.702;10.622;2023-04-21T03:45:48;13.30;99.90
23731;DHT22;12046;44.702;10.622;2023-04-21T03:48:14;13.30;99.90
23731;DHT22;12046;44.702;10.622;2023-04-21T03:50:40;13.40;99.90
23731;DHT22;12046;44.702;10.622;2023-04-21T03:53:06;13.40;99.90
23731;DHT22;12046;44.702;10.622;2023-04-21T03:55:31;13.40;99.90
23731;DHT22;12046;44.702;10.622;2023-04-21T03:57:57;13.40;99.90
23731;DHT22;12046;44.702;10.622;2023-04-21T04:00:23;13.40;99.90
23731;DHT22;12046;44.702;10.622;2023-04-21T04:02:48;13.40;99.90
23731;DHT22;12046;44.702;10.622;2023-04-21T04:05:14;13.40;99.90
23731;DHT22;12046;44.702;10.622;2023-04-21T04:07:40;13.40;99.90
23731;DHT22;12046;44.702;10.622;2023-04-21T04:10:06;13.40;99.90
23731;DHT22;12046;44.702;10.622;2023-04-21T04:12:32;13.30;99.90
23731;DHT22;12046;44.702;10.622;2023-04-21T04:14:57;13.30;99.90
23731;DHT22;12046;44.702;10.622;2023-04-21T04:17:23;13.40;99.90
23731;DHT22;12046;44.702;10.622;2023-04-21T04:19:49;13.30;99.90
23731;DHT22;12046;44.702;10.622;2023-04-21T04:22:15;13.40;99.90
23731;DHT22;12046;44.702;10.622;2023-04-21T04:24:40;13.30;99.90
23731;DHT22;12046;44.702;10.622;2023-04-21T04:27:06;13.40;99.90
23731;DHT22;12046;44.702;10.622;2023-04-21T04:29:32;13.40;99.90
23731;DHT22;12046;44.702;10.622;2023-04-21T04:31:57;13.40;99.90
23731;DHT22;12046;44.702;10.622;2023-04-21T04:34:26;13.40;99.90
23731;DHT22;12046;44.702;10.622;2023-04-21T04:36:51;13.40;99.90
23731;DHT22;12046;44.702;10.622;2023-04-21T04:39:18;13.40;99.90
23731;DHT22;12046;44.702;10.622;2023-04-21T04:41:43;13.40;99.90
23731;DHT22;12046;44.702;10.622;2023-04-21T04:44:09;13.50;99.90
23731;DHT22;12046;44.702;10.622;2023-04-21T04:46:35;13.50;99.90
23731;DHT22;12046;44.702;10.622;2023-04-21T04:49:01;13.50;99.90
23731;DHT22;12046;44.702;10.622;2023-04-21T04:51:27;13.50;99.90
23731;DHT22;12046;44.702;10.622;2023-04-21T04:53:53;13.50;99.90
23731;DHT22;12046;44.702;10.622;2023-04-21T04:56:19;13.50;99.90
23731;DHT22;12046;44.702;10.622;2023-04-21T04:58:44;13.60;99.90
23731;DHT22;12046;44.702;10.622;2023-04-21T05:01:14;13.50;99.90
23731;DHT22;12046;44.702;10.622;2023-04-21T05:03:41;13.60;99.90
23731;DHT22;12046;44.702;10.622;2023-04-21T05:06:07;13.60;99.90
23731;DHT22;12046;44.702;10.622;2023-04-21T05:08:34;13.60;99.90
23731;DHT22;12046;44.702;10.622;2023-04-21T05:10:59;13.60;99.90
23731;DHT22;12046;44.702;10.622;2023-04-21T05:13:25;13.70;99.90
23731;DHT22;12046;44.702;10.622;2023-04-21T05:15:58;13.70;99.90
23731;DHT22;12046;44.702;10.622;2023-04-21T05:18:26;13.70;99.90
23731;DHT22;12046;44.702;10.622;2023-04-21T05:20:52;13.70;99.90
23731;DHT22;12046;44.702;10.622;2023-04-21T05:23:18;13.70;99.90
23731;DHT22;12046;44.702;10.622;2023-04-21T05:25:44;13.70;99.90
23731;DHT22;12046;44.702;10.622;2023-04-21T05:28:09;13.70;99.90
23731;DHT22;12046;44.702;10.622;2023-04-21T05:30:35;13.80;99.90
23731;DHT22;12046;44.702;10.622;2023-04-21T05:33:01;13.80;99.90
23731;DHT22;12046;44.702;10.622;2023-04-21T05:35:29;13.70;99.90
23731;DHT22;12046;44.702;10.622;2023-04-21T05:37:55;13.70;99.90
23731;DHT22;12046;44.702;10.622;2023-04-21T05:40:21;13.70;99.90
23731;DHT22;12046;44.702;10.622;2023-04-21T05:42:47;13.80;99.90
23731;DHT22;12046;44.702;10.622;2023-04-21T05:45:13;13.80;99.90
23731;DHT22;12046;44.702;10.622;2023-04-21T05:47:38;13.80;99.90
23731;DHT22;12046;44.702;10.622;2023-04-21T05:50:05;13.80;99.90
23731;DHT22;12046;44.702;10.622;2023-04-21T05:52:32;13.80;99.90
23731;DHT22;12046;44.702;10.622;2023-04-21T05:54:59;13.80;99.90
23731;DHT22;12046;44.702;10.622;2023-04-21T05:57:25;13.80;99.90
23731;DHT22;12046;44.702;10.622;2023-04-21T05:59:51;13.80;99.90
23731;DHT22;12046;44.702;10.622;2023-04-21T06:02:17;13.80;99.90
23731;DHT22;12046;44.702;10.622;2023-04-21T06:04:49;13.90;99.90
23731;DHT22;12046;44.702;10.622;2023-04-21T06:07:15;13.90;99.90
23731;DHT22;12046;44.702;10.622;2023-04-21T06:09:42;13.90;99.90
23731;DHT22;12046;44.702;10.622;2023-04-21T06:12:08;13.90;99.90
23731;DHT22;12046;44.702;10.622;2023-04-21T06:14:33;13.90;99.90
23731;DHT22;12046;44.702;10.622;2023-04-21T06:16:59;13.90;99.90
23731;DHT22;12046;44.702;10.622;2023-04-21T06:19:25;13.90;99.90
23731;DHT22;12046;44.702;10.622;2023-04-21T06:21:51;13.90;99.90
23731;DHT22;12046;44.702;10.622;2023-04-21T06:24:16;13.90;99.90
23731;DHT22;12046;44.702;10.622;2023-04-21T06:26:50;14.00;99.90
23731;DHT22;12046;44.702;10.622;2023-04-21T06:29:17;14.00;99.90
23731;DHT22;12046;44.702;10.622;2023-04-21T06:31:43;14.00;99.90
23731;DHT22;12046;44.702;10.622;2023-04-21T06:34:09;14.00;99.90
23731;DHT22;12046;44.702;10.622;2023-04-21T06:36:34;14.00;99.90
23731;DHT22;12046;44.702;10.622;2023-04-21T06:39:00;14.10;99.90
23731;DHT22;12046;44.702;10.622;2023-04-21T06:41:26;14.10;99.90
23731;DHT22;12046;44.702;10.622;2023-04-21T06:43:52;14.10;99.90
23731;DHT22;12046;44.702;10.622;2023-04-21T06:46:18;14.20;99.90
23731;DHT22;12046;44.702;10.622;2023-04-21T06:48:44;14.20;99.90
23731;DHT22;12046;44.702;10.622;2023-04-21T06:51:12;14.30;99.90
23731;DHT22;12046;44.702;10.622;2023-04-21T06:53:39;14.30;99.90
23731;DHT22;12046;44.702;10.622;2023-04-21T06:56:05;14.30;99.90
23731;DHT22;12046;44.702;10.622;2023-04-21T06:58:30;14.30;99.90
23731;DHT22;12046;44.702;10.622;2023-04-21T07:00:56;14.40;99.90
23731;DHT22;12046;44.702;10.622;2023-04-21T07:03:22;14.50;99.90
23731;DHT22;12046;44.702;10.622;2023-04-21T07:05:48;14.50;99.90
23731;DHT22;12046;44.702;10.622;2023-04-21T07:08:16;14.50;99.90
23731;DHT22;12046;44.702;10.622;2023-04-21T07:10:41;14.50;99.90
23731;DHT22;12046;44.702;10.622;2023-04-21T07:13:07;14.60;99.90
23731;DHT22;12046;44.702;10.622;2023-04-21T07:15:33;14.60;99.90
23731;DHT22;12046;44.702;10.622;2023-04-21T07:17:58;14.60;99.90
23731;DHT22;12046;44.702;10.622;2023-04-21T07:20:24;14.70;99.90
23731;DHT22;12046;44.702;10.622;2023-04-21T07:22:50;14.70;99.90
23731;DHT22;12046;44.702;10.622;2023-04-21T07:25:16;14.70;99.90
23731;DHT22;12046;44.702;10.622;2023-04-21T07:27:45;14.80;99.90
23731;DHT22;12046;44.702;10.622;2023-04-21T07:30:11;14.80;99.90
23731;DHT22;12046;44.702;10.622;2023-04-21T07:32:37;14.90;99.90
23731;DHT22;12046;44.702;10.622;2023-04-21T07:35:06;14.90;99.90
23731;DHT22;12046;44.702;10.622;2023-04-21T07:37:31;15.00;99.90
23731;DHT22;12046;44.702;10.622;2023-04-21T07:39:57;15.00;99.90
23731;DHT22;12046;44.702;10.622;2023-04-21T07:42:23;15.00;99.90
23731;DHT22;12046;44.702;10.622;2023-04-21T07:44:51;15.10;99.90
23731;DHT22;12046;44.702;10.622;2023-04-21T07:47:17;15.10;99.90
23731;DHT22;12046;44.702;10.622;2023-04-21T07:49:43;15.20;99.90
23731;DHT22;12046;44.702;10.622;2023-04-21T07:52:08;15.20;99.90
23731;DHT22;12046;44.702;10.622;2023-04-21T07:54:34;15.20;99.90
23731;DHT22;12046;44.702;10.622;2023-04-21T07:57:00;15.20;99.90
23731;DHT22;12046;44.702;10.622;2023-04-21T07:59:27;15.30;99.90
23731;DHT22;12046;44.702;10.622;2023-04-21T08:01:52;15.30;99.90
23731;DHT22;12046;44.702;10.622;2023-04-21T08:04:18;15.30;99.90
23731;DHT22;12046;44.702;10.622;2023-04-21T08:06:44;15.30;99.90
23731;DHT22;12046;44.702;10.622;2023-04-21T08:09:09;15.40;99.90
23731;DHT22;12046;44.702;10.622;2023-04-21T08:11:38;15.40;99.90
23731;DHT22;12046;44.702;10.622;2023-04-21T08:14:04;15.40;99.90
23731;DHT22;12046;44.702;10.622;2023-04-21T08:16:30;15.50;99.90
23731;DHT22;12046;44.702;10.622;2023-04-21T08:18:56;15.50;99.90
23731;DHT22;12046;44.702;10.622;2023-04-21T08:21:21;15.50;99.90
23731;DHT22;12046;44.702;10.622;2023-04-21T08:23:48;15.50;99.90
23731;DHT22;12046;44.702;10.622;2023-04-21T08:26:15;15.60;99.90
23731;DHT22;12046;44.702;10.622;2023-04-21T08:28:41;15.60;99.90
23731;DHT22;12046;44.702;10.622;2023-04-21T08:31:06;15.60;99.90
23731;DHT22;12046;44.702;10.622;2023-04-21T08:33:33;15.60;99.90
23731;DHT22;12046;44.702;10.622;2023-04-21T08:35:58;15.60;99.90
23731;DHT22;12046;44.702;10.622;2023-04-21T08:38:24;15.60;99.90
23731;DHT22;12046;44.702;10.622;2023-04-21T08:40:50;15.60;99.90
23731;DHT22;12046;44.702;10.622;2023-04-21T08:43:16;15.60;99.90
23731;DHT22;12046;44.702;10.622;2023-04-21T08:45:42;15.70;99.90
23731;DHT22;12046;44.702;10.622;2023-04-21T08:48:12;15.80;99.90
23731;DHT22;12046;44.702;10.622;2023-04-21T08:50:43;15.90;99.90
23731;DHT22;12046;44.702;10.622;2023-04-21T08:53:10;16.00;99.90
23731;DHT22;12046;44.702;10.622;2023-04-21T08:55:36;16.20;99.90
23731;DHT22;12046;44.702;10.622;2023-04-21T08:58:05;16.30;99.90
23731;DHT22;12046;44.702;10.622;2023-04-21T09:00:31;16.40;99.90
23731;DHT22;12046;44.702;10.622;2023-04-21T09:02:59;16.60;99.90
23731;DHT22;12046;44.702;10.622;2023-04-21T09:05:26;16.80;99.90
23731;DHT22;12046;44.702;10.622;2023-04-21T09:08:08;16.90;99.90
23731;DHT22;12046;44.702;10.622;2023-04-21T09:10:45;17.00;99.90
23731;DHT22;12046;44.702;10.622;2023-04-21T09:13:11;17.10;99.90
23731;DHT22;12046;44.702;10.622;2023-04-21T09:15:42;17.10;99.90
23731;DHT22;12046;44.702;10.622;2023-04-21T09:18:25;17.30;99.90
23731;DHT22;12046;44.702;10.622;2023-04-21T09:21:12;17.30;99.90
23731;DHT22;12046;44.702;10.622;2023-04-21T09:26:13;17.50;99.90
23731;DHT22;12046;44.702;10.622;2023-04-21T09:28:43;17.50;99.90
23731;DHT22;12046;44.702;10.622;2023-04-21T09:33:46;17.70;99.90
23731;DHT22;12046;44.702;10.622;2023-04-21T09:36:23;17.80;99.90
23731;DHT22;12046;44.702;10.622;2023-04-21T09:41:19;18.00;99.90
23731;DHT22;12046;44.702;10.622;2023-04-21T09:43:47;18.10;99.90
23731;DHT22;12046;44.702;10.622;2023-04-21T09:46:15;18.30;99.90
23731;DHT22;12046;44.702;10.622;2023-04-21T09:48:45;18.50;99.90
23731;DHT22;12046;44.702;10.622;2023-04-21T09:51:16;18.80;99.90
23731;DHT22;12046;44.702;10.622;2023-04-21T09:53:43;19.00;99.90
23731;DHT22;12046;44.702;10.622;2023-04-21T09:56:12;19.20;99.90
23731;DHT22;12046;44.702;10.622;2023-04-21T09:58:52;19.20;99.90
23731;DHT22;12046;44.702;10.622;2023-04-21T10:01:18;19.30;99.90
23731;DHT22;12046;44.702;10.622;2023-04-21T10:03:47;19.40;99.90
23731;DHT22;12046;44.702;10.622;2023-04-21T10:06:13;19.50;99.90
23731;DHT22;12046;44.702;10.622;2023-04-21T10:08:40;19.40;99.90
23731;DHT22;12046;44.702;10.622;2023-04-21T10:11:06;19.30;99.90
23731;DHT22;12046;44.702;10.622;2023-04-21T10:13:33;19.30;99.90
23731;DHT22;12046;44.702;10.622;2023-04-21T10:16:04;19.30;99.90
23731;DHT22;12046;44.702;10.622;2023-04-21T10:18:44;19.30;99.90
23731;DHT22;12046;44.702;10.622;2023-04-21T10:29:14;19.00;99.90
23731;DHT22;12046;44.702;10.622;2023-04-21T10:38:32;18.70;99.90
23731;DHT22;12046;44.702;10.622;2023-04-21T10:50:27;18.60;99.90
23731;DHT22;12046;44.702;10.622;2023-04-21T10:58:22;18.60;99.90
23731;DHT22;12046;44.702;10.622;2023-04-21T11:07:11;18.50;99.90
23731;DHT22;12046;44.702;10.622;2023-04-21T11:09:38;18.50;99.90
23731;DHT22;12046;44.702;10.622;2023-04-21T11:12:06;18.40;99.90
23731;DHT22;12046;44.702;10.622;2023-04-21T11:14:36;18.40;99.90
23731;DHT22;12046;44.702;10.622;2023-04-21T11:17:04;18.40;99.90
23731;DHT22;12046;44.702;10.622;2023-04-21T11:19:33;18.40;99.90
23731;DHT22;12046;44.702;10.622;2023-04-21T11:21:59;18.30;99.90
23731;DHT22;12046;44.702;10.622;2023-04-21T11:24:25;18.40;99.90
23731;DHT22;12046;44.702;10.622;2023-04-21T11:26:51;18.30;99.90
23731;DHT22;12046;44.702;10.622;2023-04-21T11:29:16;18.30;99.90
23731;DHT22;12046;44.702;10.622;2023-04-21T11:31:44;18.30;99.90
23731;DHT22;12046;44.702;10.622;2023-04-21T11:34:11;18.40;99.90
23731;DHT22;12046;44.702;10.622;2023-04-21T11:36:40;18.50;99.90
23731;DHT22;12046;44.702;10.622;2023-04-21T11:39:06;18.50;99.90
23731;DHT22;12046;44.702;10.622;2023-04-21T11:41:32;18.70;99.90
23731;DHT22;12046;44.702;10.622;2023-04-21T11:43:58;18.90;99.90
23731;DHT22;12046;44.702;10.622;2023-04-21T11:46:25;19.10;99.90
23731;DHT22;12046;44.702;10.622;2023-04-21T11:49:02;19.30;99.90
23731;DHT22;12046;44.702;10.622;2023-04-21T11:51:36;19.60;99.90
23731;DHT22;12046;44.702;10.622;2023-04-21T11:54:10;19.70;99.90
23731;DHT22;12046;44.702;10.622;2023-04-21T11:56:41;20.00;99.90
23731;DHT22;12046;44.702;10.622;2023-04-21T11:59:12;20.20;99.90
23731;DHT22;12046;44.702;10.622;2023-04-21T12:01:56;20.40;99.90
23731;DHT22;12046;44.702;10.622;2023-04-21T12:04:23;20.50;99.90
23731;DHT22;12046;44.702;10.622;2023-04-21T12:07:00;20.60;99.90
23731;DHT22;12046;44.702;10.622;2023-04-21T12:09:27;20.80;99.60
23731;DHT22;12046;44.702;10.622;2023-04-21T12:11:56;21.00;98.90
23731;DHT22;12046;44.702;10.622;2023-04-21T12:14:24;21.10;98.70
23731;DHT22;12046;44.702;10.622;2023-04-21T12:16:54;21.30;98.30
23731;DHT22;12046;44.702;10.622;2023-04-21T12:19:37;21.50;97.90
23731;DHT22;12046;44.702;10.622;2023-04-21T12:22:11;21.60;97.60
23731;DHT22;12046;44.702;10.622;2023-04-21T12:24:38;21.60;97.50
23731;DHT22;12046;44.702;10.622;2023-04-21T12:27:04;21.60;97.30
23731;DHT22;12046;44.702;10.622;2023-04-21T12:29:31;21.60;96.90
23731;DHT22;12046;44.702;10.622;2023-04-21T12:31:56;21.50;97.10
23731;DHT22;12046;44.702;10.622;2023-04-21T12:34:22;21.50;97.10
23731;DHT22;12046;44.702;10.622;2023-04-21T12:36:48;21.60;97.10
23731;DHT22;12046;44.702;10.622;2023-04-21T12:39:14;21.60;96.70
23731;DHT22;12046;44.702;10.622;2023-04-21T12:41:41;21.60;96.70
23731;DHT22;12046;44.702;10.622;2023-04-21T12:44:07;21.80;96.70
23731;DHT22;12046;44.702;10.622;2023-04-21T12:46:33;21.90;96.40
23731;DHT22;12046;44.702;10.622;2023-04-21T12:48:59;22.00;95.80
23731;DHT22;12046;44.702;10.622;2023-04-21T12:51:25;22.10;95.20
23731;DHT22;12046;44.702;10.622;2023-04-21T12:53:51;22.20;94.90
23731;DHT22;12046;44.702;10.622;2023-04-21T12:56:17;22.20;94.90
23731;DHT22;12046;44.702;10.622;2023-04-21T12:58:43;22.30;95.00
23731;DHT22;12046;44.702;10.622;2023-04-21T13:01:09;22.40;95.10
23731;DHT22;12046;44.702;10.622;2023-04-21T13:03:36;22.50;95.00
23731;DHT22;12046;44.702;10.622;2023-04-21T13:06:02;22.60;94.70
23731;DHT22;12046;44.702;10.622;2023-04-21T13:08:28;22.60;94.30
23731;DHT22;12046;44.702;10.622;2023-04-21T13:10:54;22.50;94.20
23731;DHT22;12046;44.702;10.622;2023-04-21T13:13:20;22.40;94.30
23731;DHT22;12046;44.702;10.622;2023-04-21T13:15:45;22.30;94.40
23731;DHT22;12046;44.702;10.622;2023-04-21T13:18:12;22.20;94.60
23731;DHT22;12046;44.702;10.622;2023-04-21T13:20:38;22.20;94.70
23731;DHT22;12046;44.702;10.622;2023-04-21T13:23:04;22.30;94.60
23731;DHT22;12046;44.702;10.622;2023-04-21T13:25:29;22.30;94.70
23731;DHT22;12046;44.702;10.622;2023-04-21T13:27:56;22.40;94.60
23731;DHT22;12046;44.702;10.622;2023-04-21T13:30:22;22.50;94.50
23731;DHT22;12046;44.702;10.622;2023-04-21T13:32:48;22.60;94.10
23731;DHT22;12046;44.702;10.622;2023-04-21T13:35:14;22.60;93.90
23731;DHT22;12046;44.702;10.622;2023-04-21T13:37:40;22.50;94.00
23731;DHT22;12046;44.702;10.622;2023-04-21T13:40:09;22.50;94.30
23731;DHT22;12046;44.702;10.622;2023-04-21T13:42:38;22.50;94.50
23731;DHT22;12046;44.702;10.622;2023-04-21T13:45:05;22.50;94.40
23731;DHT22;12046;44.702;10.622;2023-04-21T13:47:31;22.60;94.40
23731;DHT22;12046;44.702;10.622;2023-04-21T13:49:58;22.70;94.40
23731;DHT22;12046;44.702;10.622;2023-04-21T13:52:24;22.70;94.40
23731;DHT22;12046;44.702;10.622;2023-04-21T13:54:51;22.90;94.30
23731;DHT22;12046;44.702;10.622;2023-04-21T13:57:18;23.00;94.30
23731;DHT22;12046;44.702;10.622;2023-04-21T13:59:44;23.00;93.90
23731;DHT22;12046;44.702;10.622;2023-04-21T14:02:10;23.00;93.70
23731;DHT22;12046;44.702;10.622;2023-04-21T14:04:36;23.00;93.80
23731;DHT22;12046;44.702;10.622;2023-04-21T14:07:02;23.00;93.60
23731;DHT22;12046;44.702;10.622;2023-04-21T14:09:28;23.00;93.60
23731;DHT22;12046;44.702;10.622;2023-04-21T14:11:54;23.10;93.60
23731;DHT22;12046;44.702;10.622;2023-04-21T14:14:20;23.10;93.70
23731;DHT22;12046;44.702;10.622;2023-04-21T14:16:46;23.20;93.80
23731;DHT22;12046;44.702;10.622;2023-04-21T14:19:15;23.30;93.70
23731;DHT22;12046;44.702;10.622;2023-04-21T14:21:41;23.30;93.70
23731;DHT22;12046;44.702;10.622;2023-04-21T14:24:08;23.30;93.60
23731;DHT22;12046;44.702;10.622;2023-04-21T14:26:34;23.30;93.60
23731;DHT22;12046;44.702;10.622;2023-04-21T14:29:00;23.20;93.50
23731;DHT22;12046;44.702;10.622;2023-04-21T14:31:29;23.20;93.00
23731;DHT22;12046;44.702;10.622;2023-04-21T14:33:55;23.00;93.10
23731;DHT22;12046;44.702;10.622;2023-04-21T14:36:21;22.80;93.30
23731;DHT22;12046;44.702;10.622;2023-04-21T14:38:47;22.60;93.50
23731;DHT22;12046;44.702;10.622;2023-04-21T14:41:12;22.50;93.50
23731;DHT22;12046;44.702;10.622;2023-04-21T14:43:38;22.40;93.90
23731;DHT22;12046;44.702;10.622;2023-04-21T14:46:04;22.40;94.00
23731;DHT22;12046;44.702;10.622;2023-04-21T14:48:30;22.40;94.10
23731;DHT22;12046;44.702;10.622;2023-04-21T14:50:56;22.40;94.20
23731;DHT22;12046;44.702;10.622;2023-04-21T14:53:23;22.40;94.30
23731;DHT22;12046;44.702;10.622;2023-04-21T14:55:49;22.30;94.30
23731;DHT22;12046;44.702;10.622;2023-04-21T14:58:15;22.40;94.40
23731;DHT22;12046;44.702;10.622;2023-04-21T15:00:41;22.40;94.50
23731;DHT22;12046;44.702;10.622;2023-04-21T15:03:07;22.30;94.50
23731;DHT22;12046;44.702;10.622;2023-04-21T15:05:32;22.30;94.90
23731;DHT22;12046;44.702;10.622;2023-04-21T15:07:59;22.30;94.80
23731;DHT22;12046;44.702;10.622;2023-04-21T15:10:25;22.20;95.00
23731;DHT22;12046;44.702;10.622;2023-04-21T15:12:51;22.10;95.10
23731;DHT22;12046;44.702;10.622;2023-04-21T15:15:17;22.00;95.30
23731;DHT22;12046;44.702;10.622;2023-04-21T15:17:43;21.90;95.40
23731;DHT22;12046;44.702;10.622;2023-04-21T15:20:09;21.80;95.50
23731;DHT22;12046;44.702;10.622;2023-04-21T15:22:35;21.70;95.60
23731;DHT22;12046;44.702;10.622;2023-04-21T15:25:01;21.70;95.80
23731;DHT22;12046;44.702;10.622;2023-04-21T15:27:27;21.60;95.90
23731;DHT22;12046;44.702;10.622;2023-04-21T15:29:52;21.60;96.00
23731;DHT22;12046;44.702;10.622;2023-04-21T15:32:19;21.50;96.10
23731;DHT22;12046;44.702;10.622;2023-04-21T15:34:44;21.40;96.10
23731;DHT22;12046;44.702;10.622;2023-04-21T15:37:10;21.40;96.10
23731;DHT22;12046;44.702;10.622;2023-04-21T15:39:36;21.30;96.20
23731;DHT22;12046;44.702;10.622;2023-04-21T15:42:03;21.30;96.30
23731;DHT22;12046;44.702;10.622;2023-04-21T15:44:29;21.20;96.40
23731;DHT22;12046;44.702;10.622;2023-04-21T15:46:55;21.20;96.60
23731;DHT22;12046;44.702;10.622;2023-04-21T15:49:21;21.00;96.70
23731;DHT22;12046;44.702;10.622;2023-04-21T15:51:47;21.00;96.80
23731;DHT22;12046;44.702;10.622;2023-04-21T15:54:13;21.00;96.80
23731;DHT22;12046;44.702;10.622;2023-04-21T15:56:38;20.90;96.90
23731;DHT22;12046;44.702;10.622;2023-04-21T15:59:04;20.80;96.90
23731;DHT22;12046;44.702;10.622;2023-04-21T16:01:31;20.80;97.00
23731;DHT22;12046;44.702;10.622;2023-04-21T16:03:57;20.80;97.10